createdAt,value
2023-05-24T00:00:00.193Z,70
2023-05-24T00:04:00.419Z,70
2023-05-24T00:08:00.249Z,70
2023-05-24T00:12:00.211Z,70
2023-05-24T00:16:00.201Z,70
2023-05-24T00:20:00.276Z,70
2023-05-24T00:24:00.173Z,70
2023-05-24T00:28:00.227Z,70
2023-05-24T00:32:00.347Z,70
2023-05-24T00:36:00.188Z,70
2023-05-24T00:40:00.268Z,70
2023-05-24T00:44:00.227Z,70
2023-05-24T00:48:01.362Z,71
2023-05-24T00:52:00.209Z,70
2023-05-24T00:56:00.207Z,71
2023-05-24T01:00:00.204Z,70
2023-05-24T01:04:00.219Z,70
2023-05-24T01:08:00.191Z,71
2023-05-24T01:12:00.214Z,71
2023-05-24T01:16:00.297Z,71
2023-05-24T01:20:00.390Z,71
2023-05-24T01:24:00.226Z,71
2023-05-24T01:28:00.202Z,71
2023-05-24T01:32:00.224Z,71
2023-05-24T01:36:00.187Z,71
2023-05-24T01:40:00.257Z,72
2023-05-24T01:44:00.189Z,72
2023-05-24T01:48:00.230Z,73
2023-05-24T01:52:00.324Z,73
2023-05-24T01:56:00.208Z,74
2023-05-24T02:00:00.231Z,74
2023-05-24T02:04:00.220Z,74
2023-05-24T02:08:00.185Z,75
2023-05-24T02:12:00.197Z,75
2023-05-24T02:16:00.217Z,75
2023-05-24T02:20:00.364Z,75
2023-05-24T02:24:00.221Z,75
2023-05-24T02:28:00.199Z,75
2023-05-24T02:32:00.196Z,76
2023-05-24T02:36:00.221Z,76
2023-05-24T02:40:00.199Z,76
2023-05-24T02:44:00.216Z,76
2023-05-24T02:48:00.353Z,76
2023-05-24T02:52:00.225Z,76
2023-05-24T02:56:00.177Z,76
2023-05-24T03:00:00.224Z,76
2023-05-24T03:04:00.319Z,76
2023-05-24T03:08:00.193Z,76
2023-05-24T03:12:00.235Z,76
2023-05-24T03:16:00.257Z,75
2023-05-24T03:20:00.282Z,75
2023-05-24T03:24:00.205Z,75
2023-05-24T03:28:00.223Z,75
2023-05-24T03:32:00.389Z,75
2023-05-24T03:36:00.200Z,75
2023-05-24T03:40:00.222Z,74
2023-05-24T03:44:00.210Z,74
2023-05-24T03:48:00.255Z,73
2023-05-24T03:52:00.211Z,73
2023-05-24T03:56:00.179Z,73
2023-05-24T04:00:00.208Z,72
2023-05-24T04:04:00.306Z,72
2023-05-24T04:08:00.190Z,71
2023-05-24T04:12:00.194Z,71
2023-05-24T04:16:00.188Z,71
2023-05-24T04:20:00.266Z,70
2023-05-24T04:24:00.192Z,70
2023-05-24T04:28:00.215Z,70
2023-05-24T04:32:00.202Z,70
2023-05-24T04:36:00.176Z,70
2023-05-24T04:40:00.253Z,70
2023-05-24T04:44:00.209Z,69
2023-05-24T04:48:00.271Z,69
2023-05-24T04:52:00.222Z,68
2023-05-24T04:56:00.234Z,68
2023-05-24T05:00:00.197Z,68
2023-05-24T05:04:00.343Z,68
2023-05-24T05:08:00.195Z,68
2023-05-24T05:12:00.236Z,67
2023-05-24T05:16:00.265Z,66
2023-05-24T05:20:00.342Z,66
2023-05-24T05:24:00.197Z,66
2023-05-24T05:28:00.191Z,66
2023-05-24T05:32:00.317Z,66
2023-05-24T05:36:00.206Z,66
2023-05-24T05:40:00.224Z,66
2023-05-24T05:44:00.218Z,66
2023-05-24T05:48:00.269Z,66
2023-05-24T05:52:00.201Z,64
2023-05-24T05:56:00.226Z,64
2023-05-24T06:00:00.256Z,63
2023-05-24T06:04:00.364Z,63
2023-05-24T06:08:00.193Z,63
2023-05-24T06:12:00.205Z,62
2023-05-24T06:16:00.240Z,62
2023-05-24T06:20:00.318Z,62
2023-05-24T06:24:00.191Z,62
2023-05-24T06:28:00.202Z,61
2023-05-24T06:32:00.286Z,61
2023-05-24T06:36:00.219Z,60
2023-05-24T06:40:00.244Z,59
2023-05-24T06:44:00.214Z,60
2023-05-24T06:48:00.406Z,61
2023-05-24T06:52:00.205Z,62
2023-05-24T06:56:00.202Z,61
2023-05-24T07:00:00.238Z,61
2023-05-24T07:04:00.225Z,61
2023-05-24T07:08:00.205Z,59
2023-05-24T07:12:00.213Z,59
2023-05-24T07:16:00.252Z,60
2023-05-24T07:20:00.287Z,59
2023-05-24T07:24:00.204Z,59
2023-05-24T07:28:00.174Z,58
2023-05-24T07:32:00.211Z,59
2023-05-24T07:36:00.200Z,58
2023-05-24T07:40:00.207Z,58
2023-05-24T07:44:00.220Z,58
2023-05-24T07:48:00.299Z,58
2023-05-24T07:52:00.202Z,58
2023-05-24T07:56:00.214Z,59
2023-05-24T08:00:00.269Z,59
2023-05-24T08:04:00.353Z,58
2023-05-24T08:08:00.212Z,58
2023-05-24T08:12:00.204Z,58
2023-05-24T08:16:00.216Z,59
2023-05-24T08:20:00.456Z,59
2023-05-24T08:24:00.202Z,58
2023-05-24T08:28:00.241Z,58
2023-05-24T08:32:00.245Z,58
2023-05-24T08:36:00.215Z,58
2023-05-24T08:40:00.243Z,58
2023-05-24T08:44:00.200Z,58
2023-05-24T08:48:00.317Z,58
2023-05-24T08:52:00.199Z,58
2023-05-24T08:56:00.219Z,59
2023-05-24T09:00:00.212Z,59
2023-05-24T09:04:00.288Z,59
2023-05-24T09:08:00.211Z,58
2023-05-24T09:12:00.209Z,57
2023-05-24T09:16:00.307Z,58
2023-05-24T09:20:00.422Z,57
2023-05-24T09:24:00.215Z,57
2023-05-24T09:28:00.206Z,57
2023-05-24T09:32:00.294Z,57
2023-05-24T09:36:00.213Z,57
2023-05-24T09:40:00.334Z,57
2023-05-24T09:44:00.205Z,56
2023-05-24T09:48:00.246Z,56
2023-05-24T09:52:00.229Z,55
2023-05-24T09:56:00.185Z,56
2023-05-24T10:00:00.221Z,56
2023-05-24T10:04:00.346Z,55
2023-05-24T10:08:00.207Z,55
2023-05-24T10:12:00.194Z,55
2023-05-24T10:16:00.220Z,55
2023-05-24T10:20:00.368Z,55
2023-05-24T10:24:00.205Z,54
2023-05-24T10:28:00.246Z,55
2023-05-24T10:32:00.200Z,56
2023-05-24T10:36:00.196Z,55
2023-05-24T10:40:00.216Z,54
2023-05-24T10:48:00.214Z,54
2023-05-24T10:52:00.185Z,54
2023-05-24T10:56:00.335Z,54
2023-05-24T11:00:00.247Z,54
2023-05-24T11:04:00.198Z,54
2023-05-24T11:08:00.227Z,54
2023-05-24T11:12:00.201Z,53
2023-05-24T11:16:00.313Z,53
2023-05-24T11:20:00.265Z,53
2023-05-24T11:24:00.268Z,51
2023-05-24T11:28:00.241Z,51
2023-05-24T11:32:00.281Z,52
2023-05-24T11:36:00.221Z,52
2023-05-24T11:40:00.204Z,52
2023-05-24T11:44:00.199Z,52
2023-05-24T11:48:00.225Z,52
2023-05-24T11:52:00.202Z,50
2023-05-24T11:56:00.209Z,51
2023-05-24T12:00:00.249Z,50
2023-05-24T12:04:00.354Z,51
2023-05-24T12:08:00.213Z,48
2023-05-24T12:12:00.235Z,46
2023-05-24T12:16:00.220Z,48
2023-05-24T12:20:00.305Z,46
2023-05-24T12:24:00.218Z,46
2023-05-24T12:28:00.219Z,46
2023-05-24T12:32:00.202Z,45
2023-05-24T12:36:00.217Z,43
2023-05-24T12:40:00.222Z,43
2023-05-24T12:44:00.215Z,42
2023-05-24T12:48:00.252Z,41
2023-05-24T12:52:00.218Z,43
2023-05-24T12:56:00.199Z,42
2023-05-24T13:00:00.188Z,42
2023-05-24T13:04:00.236Z,43
2023-05-24T13:08:00.203Z,42
2023-05-24T13:12:00.199Z,41
2023-05-24T13:16:00.194Z,42
2023-05-24T13:20:00.369Z,41
2023-05-24T13:24:00.199Z,39
2023-05-24T13:28:00.214Z,40
2023-05-24T13:32:00.182Z,39
2023-05-24T13:36:00.214Z,40
2023-05-24T13:40:00.222Z,40
2023-05-24T13:44:00.209Z,40
2023-05-24T13:48:00.381Z,40
2023-05-24T13:52:00.206Z,39
2023-05-24T13:56:00.201Z,38
2023-05-24T14:00:00.272Z,38
2023-05-24T14:04:00.211Z,39
2023-05-24T14:08:00.293Z,39
2023-05-24T14:12:00.192Z,40
2023-05-24T14:16:00.287Z,42
2023-05-24T14:20:00.329Z,41
2023-05-24T14:24:00.199Z,42
2023-05-24T14:28:00.211Z,42
2023-05-24T14:32:00.324Z,41
2023-05-24T14:36:00.207Z,41
2023-05-24T14:40:00.468Z,40
2023-05-24T14:44:00.187Z,39
2023-05-24T14:48:00.272Z,41
2023-05-24T14:52:00.205Z,39
2023-05-24T14:56:00.192Z,39
2023-05-24T15:00:00.252Z,39
2023-05-24T15:04:00.193Z,39
2023-05-24T15:08:00.230Z,37
2023-05-24T15:12:00.200Z,38
2023-05-24T15:16:00.175Z,39
2023-05-24T15:20:00.303Z,39
2023-05-24T15:24:00.200Z,39
2023-05-24T15:28:00.201Z,39
2023-05-24T15:32:00.194Z,39
2023-05-24T15:36:00.280Z,39
2023-05-24T15:40:00.223Z,39
2023-05-24T15:44:00.237Z,39
2023-05-24T15:48:00.249Z,39
2023-05-24T15:52:04.294Z,40
2023-05-24T15:56:00.187Z,40
2023-05-24T16:00:00.221Z,41
2023-05-24T16:04:00.282Z,40
2023-05-24T16:08:00.219Z,42
2023-05-24T16:12:01.011Z,41
2023-05-24T16:16:00.201Z,42
2023-05-24T16:20:00.259Z,42
2023-05-24T16:24:02.053Z,42
2023-05-24T16:28:00.215Z,42
2023-05-24T16:32:00.265Z,42
2023-05-24T16:36:02.961Z,42
2023-05-24T16:40:00.218Z,42
2023-05-24T16:44:00.204Z,43
2023-05-24T16:48:00.322Z,42
2023-05-24T16:52:00.196Z,43
2023-05-24T16:56:00.206Z,43
2023-05-24T17:00:00.220Z,44
2023-05-24T17:04:00.553Z,44
2023-05-24T17:08:00.220Z,45
2023-05-24T17:12:00.221Z,44
2023-05-24T17:16:00.614Z,45
2023-05-24T17:20:00.310Z,46
2023-05-24T17:24:00.266Z,46
2023-05-24T17:28:00.193Z,47
2023-05-24T17:32:00.309Z,48
2023-05-24T17:36:00.243Z,49
2023-05-24T17:40:00.212Z,49
2023-05-24T17:44:00.194Z,49
2023-05-24T17:48:00.266Z,51
2023-05-24T17:52:01.040Z,51
2023-05-24T17:56:00.212Z,52
2023-05-24T18:00:00.214Z,52
2023-05-24T18:04:00.190Z,53
2023-05-24T18:08:00.207Z,53
2023-05-24T18:12:00.199Z,53
2023-05-24T18:16:00.200Z,54
2023-05-24T18:20:00.404Z,55
2023-05-24T18:24:00.197Z,56
2023-05-24T18:28:00.192Z,56
2023-05-24T18:32:00.320Z,57
2023-05-24T18:36:00.197Z,57
2023-05-24T18:40:00.244Z,58
2023-05-24T18:44:00.203Z,58
2023-05-24T18:48:00.272Z,58
2023-05-24T18:52:00.208Z,59
2023-05-24T18:56:00.199Z,59
2023-05-24T19:00:00.199Z,59
2023-05-24T19:04:00.210Z,60
2023-05-24T19:08:00.199Z,60
2023-05-24T19:12:00.195Z,61
2023-05-24T19:16:00.201Z,61
2023-05-24T19:20:00.326Z,63
2023-05-24T19:24:00.217Z,63
2023-05-24T19:28:00.927Z,64
2023-05-24T19:32:00.236Z,64
2023-05-24T19:36:00.239Z,65
2023-05-24T19:40:00.193Z,66
2023-05-24T19:44:00.220Z,66
2023-05-24T19:48:00.232Z,66
2023-05-24T19:52:00.204Z,67
2023-05-24T19:56:00.210Z,68
2023-05-24T20:00:00.218Z,69
2023-05-24T20:04:00.287Z,69
2023-05-24T20:08:00.208Z,69
2023-05-24T20:12:00.212Z,69
2023-05-24T20:16:00.265Z,69
2023-05-24T20:20:00.288Z,70
2023-05-24T20:24:00.211Z,70
2023-05-24T20:28:00.207Z,70
2023-05-24T20:32:00.237Z,71
2023-05-24T20:36:00.191Z,71
2023-05-24T20:40:00.226Z,71
2023-05-24T20:44:00.190Z,72
2023-05-24T20:48:00.306Z,72
2023-05-24T20:52:00.189Z,72
2023-05-24T20:56:00.202Z,73
2023-05-24T21:00:00.197Z,73
2023-05-24T21:04:00.234Z,73
2023-05-24T21:08:00.204Z,73
2023-05-24T21:12:00.202Z,74
2023-05-24T21:16:00.223Z,74
2023-05-24T21:20:00.282Z,74
2023-05-24T21:24:00.205Z,74
2023-05-24T21:28:00.232Z,75
2023-05-24T21:32:00.213Z,75
2023-05-24T21:36:00.224Z,75
2023-05-24T21:40:00.206Z,75
2023-05-24T21:44:00.190Z,75
2023-05-24T21:48:00.256Z,75
2023-05-24T21:52:00.196Z,75
2023-05-24T21:56:00.194Z,76
2023-05-24T22:00:00.201Z,76
2023-05-24T22:04:00.243Z,76
2023-05-24T22:08:00.256Z,76
2023-05-24T22:12:00.206Z,76
2023-05-24T22:16:00.249Z,77
2023-05-24T22:20:00.258Z,77
2023-05-24T22:24:00.182Z,77
2023-05-24T22:28:00.207Z,77
2023-05-24T22:32:00.307Z,77
2023-05-24T22:36:00.215Z,77
2023-05-24T22:40:00.215Z,78
2023-05-24T22:44:00.232Z,78
2023-05-24T22:48:00.257Z,78
2023-05-24T22:52:00.216Z,78
2023-05-24T22:56:00.220Z,78
2023-05-24T23:00:00.213Z,78
2023-05-24T23:04:15.774Z,79
2023-05-24T23:08:00.216Z,79
2023-05-24T23:12:00.210Z,79
2023-05-24T23:16:00.182Z,79
2023-05-24T23:20:00.301Z,79
2023-05-24T23:24:00.220Z,79
2023-05-24T23:28:00.198Z,79
2023-05-24T23:32:00.223Z,79
2023-05-24T23:36:00.186Z,80
2023-05-24T23:40:00.242Z,80
2023-05-24T23:44:00.196Z,80
2023-05-24T23:48:00.246Z,80
2023-05-24T23:52:00.196Z,80
2023-05-24T23:56:00.200Z,80
